sensor_id;sensor_type;location;lat;lon;timestamp;temperature;humidity
18207;DHT22;9229;52.354;20.886;2024-01-30T00:01:20;1.70;99.90
18207;DHT22;9229;52.354;20.886;2024-01-30T00:06:22;1.70;99.90
18207;DHT22;9229;52.354;20.886;2024-01-30T00:11:28;1.70;99.90
18207;DHT22;9229;52.354;20.886;2024-01-30T00:16:34;1.70;99.90
18207;DHT22;9229;52.354;20.886;2024-01-30T00:21:46;1.70;99.90
18207;DHT22;9229;52.354;20.886;2024-01-30T00:26:50;1.70;99.90
18207;DHT22;9229;52.354;20.886;2024-01-30T00:31:54;1.50;99.90
18207;DHT22;9229;52.354;20.886;2024-01-30T00:36:59;1.60;99.90
18207;DHT22;9229;52.354;20.886;2024-01-30T00:42:01;1.50;99.90
18207;DHT22;9229;52.354;20.886;2024-01-30T00:47:05;1.40;99.90
18207;DHT22;9229;52.354;20.886;2024-01-30T00:52:08;1.50;99.90
18207;DHT22;9229;52.354;20.886;2024-01-30T00:57:12;1.30;99.90
18207;DHT22;9229;52.354;20.886;2024-01-30T01:02:18;1.20;99.90
18207;DHT22;9229;52.354;20.886;2024-01-30T01:07:20;1.10;99.90
18207;DHT22;9229;52.354;20.886;2024-01-30T01:12:22;1.00;99.90
18207;DHT22;9229;52.354;20.886;2024-01-30T01:17:26;0.90;99.90
18207;DHT22;9229;52.354;20.886;2024-01-30T01:22:28;0.90;99.90
18207;DHT22;9229;52.354;20.886;2024-01-30T01:27:31;0.90;99.90
18207;DHT22;9229;52.354;20.886;2024-01-30T01:32:37;0.80;99.90
18207;DHT22;9229;52.354;20.886;2024-01-30T01:37:46;0.80;99.90
18207;DHT22;9229;52.354;20.886;2024-01-30T01:42:50;0.80;99.90
18207;DHT22;9229;52.354;20.886;2024-01-30T01:47:59;0.70;99.90
18207;DHT22;9229;52.354;20.886;2024-01-30T01:53:05;0.70;99.90
18207;DHT22;9229;52.354;20.886;2024-01-30T01:58:09;0.60;99.90
18207;DHT22;9229;52.354;20.886;2024-01-30T02:03:18;0.50;99.90
18207;DHT22;9229;52.354;20.886;2024-01-30T02:08:22;0.50;99.90
18207;DHT22;9229;52.354;20.886;2024-01-30T02:13:24;0.50;99.90
18207;DHT22;9229;52.354;20.886;2024-01-30T02:18:29;0.50;99.90
18207;DHT22;9229;52.354;20.886;2024-01-30T02:23:37;0.40;99.90
18207;DHT22;9229;52.354;20.886;2024-01-30T02:28:42;0.30;99.90
18207;DHT22;9229;52.354;20.886;2024-01-30T02:33:44;0.20;99.90
18207;DHT22;9229;52.354;20.886;2024-01-30T02:38:49;0.10;99.90
18207;DHT22;9229;52.354;20.886;2024-01-30T02:43:54;0.00;99.90
18207;DHT22;9229;52.354;20.886;2024-01-30T02:49:00;-0.10;99.90
18207;DHT22;9229;52.354;20.886;2024-01-30T02:54:05;-0.10;99.90
18207;DHT22;9229;52.354;20.886;2024-01-30T02:59:07;-0.10;99.90
18207;DHT22;9229;52.354;20.886;2024-01-30T03:04:10;-0.20;99.90
18207;DHT22;9229;52.354;20.886;2024-01-30T03:09:16;-0.30;99.90
18207;DHT22;9229;52.354;20.886;2024-01-30T03:14:19;-0.40;99.90
18207;DHT22;9229;52.354;20.886;2024-01-30T03:19:23;-0.50;99.90
18207;DHT22;9229;52.354;20.886;2024-01-30T03:24:29;-0.60;99.90
18207;DHT22;9229;52.354;20.886;2024-01-30T03:29:34;-0.70;99.90
18207;DHT22;9229;52.354;20.886;2024-01-30T03:34:36;-0.60;99.90
18207;DHT22;9229;52.354;20.886;2024-01-30T03:39:39;-0.70;99.90
18207;DHT22;9229;52.354;20.886;2024-01-30T03:44:42;-0.50;99.90
18207;DHT22;9229;52.354;20.886;2024-01-30T03:49:44;-0.50;99.90
18207;DHT22;9229;52.354;20.886;2024-01-30T03:54:49;-0.50;99.90
18207;DHT22;9229;52.354;20.886;2024-01-30T03:59:52;-0.40;99.90
18207;DHT22;9229;52.354;20.886;2024-01-30T04:04:56;-0.50;99.90
18207;DHT22;9229;52.354;20.886;2024-01-30T04:10:03;-0.40;99.90
18207;DHT22;9229;52.354;20.886;2024-01-30T04:15:08;-0.40;99.90
18207;DHT22;9229;52.354;20.886;2024-01-30T04:20:15;-0.40;99.90
18207;DHT22;9229;52.354;20.886;2024-01-30T04:25:21;-0.30;99.90
18207;DHT22;9229;52.354;20.886;2024-01-30T04:30:23;-0.40;99.90
18207;DHT22;9229;52.354;20.886;2024-01-30T04:35:27;-0.30;99.90
18207;DHT22;9229;52.354;20.886;2024-01-30T04:40:31;-0.30;99.90
18207;DHT22;9229;52.354;20.886;2024-01-30T04:45:36;-0.30;99.90
18207;DHT22;9229;52.354;20.886;2024-01-30T04:50:41;-0.30;99.90
18207;DHT22;9229;52.354;20.886;2024-01-30T04:55:59;-0.30;99.90
18207;DHT22;9229;52.354;20.886;2024-01-30T05:01:04;-0.30;99.90
18207;DHT22;9229;52.354;20.886;2024-01-30T05:06:06;-0.30;99.90
18207;DHT22;9229;52.354;20.886;2024-01-30T05:11:24;-0.20;99.90
18207;DHT22;9229;52.354;20.886;2024-01-30T05:16:29;-0.20;99.90
18207;DHT22;9229;52.354;20.886;2024-01-30T05:21:34;-0.30;99.90
18207;DHT22;9229;52.354;20.886;2024-01-30T05:26:40;-0.30;99.90
18207;DHT22;9229;52.354;20.886;2024-01-30T05:31:42;-0.30;99.90
18207;DHT22;9229;52.354;20.886;2024-01-30T05:36:45;-0.40;99.90
18207;DHT22;9229;52.354;20.886;2024-01-30T05:41:48;-0.50;99.90
18207;DHT22;9229;52.354;20.886;2024-01-30T05:46:50;-0.60;99.90
18207;DHT22;9229;52.354;20.886;2024-01-30T05:51:57;-0.70;99.90
18207;DHT22;9229;52.354;20.886;2024-01-30T05:57:03;-0.80;99.90
18207;DHT22;9229;52.354;20.886;2024-01-30T06:02:05;-0.70;99.90
18207;DHT22;9229;52.354;20.886;2024-01-30T06:07:08;-0.60;99.90
18207;DHT22;9229;52.354;20.886;2024-01-30T06:12:12;-0.60;99.90
18207;DHT22;9229;52.354;20.886;2024-01-30T06:17:18;-0.50;99.90
18207;DHT22;9229;52.354;20.886;2024-01-30T06:22:21;-0.40;99.90
18207;DHT22;9229;52.354;20.886;2024-01-30T06:27:27;-0.30;99.90
18207;DHT22;9229;52.354;20.886;2024-01-30T06:32:30;-0.30;99.90
18207;DHT22;9229;52.354;20.886;2024-01-30T06:37:39;-0.30;99.90
18207;DHT22;9229;52.354;20.886;2024-01-30T06:42:45;-0.30;99.90
18207;DHT22;9229;52.354;20.886;2024-01-30T06:47:50;-0.30;99.90
18207;DHT22;9229;52.354;20.886;2024-01-30T06:52:54;-0.30;99.90
18207;DHT22;9229;52.354;20.886;2024-01-30T06:57:59;-0.20;99.90
18207;DHT22;9229;52.354;20.886;2024-01-30T07:03:02;-0.30;99.90
18207;DHT22;9229;52.354;20.886;2024-01-30T07:08:06;-0.20;99.90
18207;DHT22;9229;52.354;20.886;2024-01-30T07:13:10;0.00;99.90
18207;DHT22;9229;52.354;20.886;2024-01-30T07:18:13;0.20;99.90
18207;DHT22;9229;52.354;20.886;2024-01-30T07:23:16;0.40;99.90
18207;DHT22;9229;52.354;20.886;2024-01-30T07:28:25;0.60;99.90
18207;DHT22;9229;52.354;20.886;2024-01-30T07:33:28;0.80;99.90
18207;DHT22;9229;52.354;20.886;2024-01-30T07:38:32;1.10;99.90
18207;DHT22;9229;52.354;20.886;2024-01-30T07:43:43;1.30;99.90
18207;DHT22;9229;52.354;20.886;2024-01-30T07:48:49;1.60;99.90
18207;DHT22;9229;52.354;20.886;2024-01-30T07:54:06;1.70;99.90
18207;DHT22;9229;52.354;20.886;2024-01-30T07:59:11;1.90;99.90
18207;DHT22;9229;52.354;20.886;2024-01-30T08:04:16;2.10;99.90
18207;DHT22;9229;52.354;20.886;2024-01-30T08:09:20;2.30;99.90
18207;DHT22;9229;52.354;20.886;2024-01-30T08:14:24;2.50;99.90
18207;DHT22;9229;52.354;20.886;2024-01-30T08:19:27;2.70;99.90
18207;DHT22;9229;52.354;20.886;2024-01-30T08:24:31;2.70;99.90
18207;DHT22;9229;52.354;20.886;2024-01-30T08:29:38;2.90;99.90
18207;DHT22;9229;52.354;20.886;2024-01-30T08:34:41;3.10;99.90
18207;DHT22;9229;52.354;20.886;2024-01-30T08:39:44;3.20;99.90
18207;DHT22;9229;52.354;20.886;2024-01-30T08:44:48;3.40;99.90
18207;DHT22;9229;52.354;20.886;2024-01-30T08:49:54;3.60;99.90
18207;DHT22;9229;52.354;20.886;2024-01-30T08:54:58;3.80;99.90
18207;DHT22;9229;52.354;20.886;2024-01-30T09:00:01;4.00;99.90
18207;DHT22;9229;52.354;20.886;2024-01-30T09:05:07;4.20;99.90
18207;DHT22;9229;52.354;20.886;2024-01-30T09:10:11;4.30;99.90
18207;DHT22;9229;52.354;20.886;2024-01-30T09:15:15;4.50;99.90
18207;DHT22;9229;52.354;20.886;2024-01-30T09:20:20;4.60;99.90
18207;DHT22;9229;52.354;20.886;2024-01-30T09:25:24;5.00;99.90
18207;DHT22;9229;52.354;20.886;2024-01-30T09:30:28;5.00;99.90
18207;DHT22;9229;52.354;20.886;2024-01-30T09:35:30;5.20;99.90
18207;DHT22;9229;52.354;20.886;2024-01-30T09:40:32;5.30;99.90
18207;DHT22;9229;52.354;20.886;2024-01-30T09:45:40;5.50;99.90
18207;DHT22;9229;52.354;20.886;2024-01-30T09:50:46;6.00;99.90
18207;DHT22;9229;52.354;20.886;2024-01-30T09:55:52;6.50;99.90
18207;DHT22;9229;52.354;20.886;2024-01-30T10:00:55;6.80;99.90
18207;DHT22;9229;52.354;20.886;2024-01-30T10:05:57;7.20;99.90
18207;DHT22;9229;52.354;20.886;2024-01-30T10:11:00;7.60;99.90
18207;DHT22;9229;52.354;20.886;2024-01-30T10:16:06;7.80;99.90
18207;DHT22;9229;52.354;20.886;2024-01-30T10:21:18;8.20;99.90
18207;DHT22;9229;52.354;20.886;2024-01-30T10:26:20;8.40;99.90
18207;DHT22;9229;52.354;20.886;2024-01-30T10:31:24;8.60;99.70
18207;DHT22;9229;52.354;20.886;2024-01-30T10:36:29;8.80;99.00
18207;DHT22;9229;52.354;20.886;2024-01-30T10:41:39;9.20;97.70
18207;DHT22;9229;52.354;20.886;2024-01-30T10:47:06;9.50;95.30
18207;DHT22;9229;52.354;20.886;2024-01-30T10:52:10;9.40;94.60
18207;DHT22;9229;52.354;20.886;2024-01-30T10:57:22;9.60;94.00
18207;DHT22;9229;52.354;20.886;2024-01-30T11:02:40;9.60;93.30
18207;DHT22;9229;52.354;20.886;2024-01-30T11:07:45;9.50;93.00
18207;DHT22;9229;52.354;20.886;2024-01-30T11:12:48;9.60;92.60
18207;DHT22;9229;52.354;20.886;2024-01-30T11:17:54;9.60;91.80
18207;DHT22;9229;52.354;20.886;2024-01-30T11:23:04;9.50;91.30
18207;DHT22;9229;52.354;20.886;2024-01-30T11:28:13;9.30;91.30
18207;DHT22;9229;52.354;20.886;2024-01-30T11:33:31;9.20;91.40
18207;DHT22;9229;52.354;20.886;2024-01-30T11:38:35;9.20;91.20
18207;DHT22;9229;52.354;20.886;2024-01-30T11:43:40;9.30;91.30
18207;DHT22;9229;52.354;20.886;2024-01-30T11:48:48;9.10;90.90
18207;DHT22;9229;52.354;20.886;2024-01-30T11:53:51;9.10;90.80
18207;DHT22;9229;52.354;20.886;2024-01-30T11:58:53;9.20;91.00
18207;DHT22;9229;52.354;20.886;2024-01-30T12:03:58;9.40;90.80
18207;DHT22;9229;52.354;20.886;2024-01-30T12:09:02;9.40;90.20
18207;DHT22;9229;52.354;20.886;2024-01-30T12:14:09;9.50;90.30
18207;DHT22;9229;52.354;20.886;2024-01-30T12:19:22;9.60;90.00
18207;DHT22;9229;52.354;20.886;2024-01-30T12:24:25;9.60;90.00
18207;DHT22;9229;52.354;20.886;2024-01-30T12:29:31;9.70;89.60
18207;DHT22;9229;52.354;20.886;2024-01-30T12:34:40;9.70;89.30
18207;DHT22;9229;52.354;20.886;2024-01-30T12:39:43;9.90;87.50
18207;DHT22;9229;52.354;20.886;2024-01-30T12:44:46;9.90;87.50
18207;DHT22;9229;52.354;20.886;2024-01-30T12:49:49;10.00;86.00
18207;DHT22;9229;52.354;20.886;2024-01-30T12:54:55;10.30;86.60
18207;DHT22;9229;52.354;20.886;2024-01-30T12:59:57;10.50;86.00
18207;DHT22;9229;52.354;20.886;2024-01-30T13:05:04;10.50;84.30
18207;DHT22;9229;52.354;20.886;2024-01-30T13:10:06;10.60;83.90
18207;DHT22;9229;52.354;20.886;2024-01-30T13:15:12;10.60;83.70
18207;DHT22;9229;52.354;20.886;2024-01-30T13:20:20;10.60;83.50
18207;DHT22;9229;52.354;20.886;2024-01-30T13:25:22;10.60;83.90
18207;DHT22;9229;52.354;20.886;2024-01-30T13:30:24;10.70;82.70
18207;DHT22;9229;52.354;20.886;2024-01-30T13:35:28;10.70;82.40
18207;DHT22;9229;52.354;20.886;2024-01-30T13:40:30;10.70;82.00
18207;DHT22;9229;52.354;20.886;2024-01-30T13:45:34;10.40;81.80
18207;DHT22;9229;52.354;20.886;2024-01-30T13:50:39;10.00;82.40
18207;DHT22;9229;52.354;20.886;2024-01-30T13:55:44;9.70;84.20
18207;DHT22;9229;52.354;20.886;2024-01-30T14:00:47;9.40;84.80
18207;DHT22;9229;52.354;20.886;2024-01-30T14:05:54;9.20;85.30
18207;DHT22;9229;52.354;20.886;2024-01-30T14:10:58;9.10;86.10
18207;DHT22;9229;52.354;20.886;2024-01-30T14:16:00;8.90;86.80
18207;DHT22;9229;52.354;20.886;2024-01-30T14:21:07;8.70;87.50
18207;DHT22;9229;52.354;20.886;2024-01-30T14:26:11;8.70;88.40
18207;DHT22;9229;52.354;20.886;2024-01-30T14:31:13;8.50;88.80
18207;DHT22;9229;52.354;20.886;2024-01-30T14:36:23;8.40;89.60
18207;DHT22;9229;52.354;20.886;2024-01-30T14:41:28;8.40;90.10
18207;DHT22;9229;52.354;20.886;2024-01-30T14:46:30;8.10;90.30
18207;DHT22;9229;52.354;20.886;2024-01-30T14:51:35;8.00;90.70
18207;DHT22;9229;52.354;20.886;2024-01-30T14:56:38;7.80;91.10
18207;DHT22;9229;52.354;20.886;2024-01-30T15:01:42;7.70;91.40
18207;DHT22;9229;52.354;20.886;2024-01-30T15:06:48;7.50;91.40
18207;DHT22;9229;52.354;20.886;2024-01-30T15:11:50;7.30;91.70
18207;DHT22;9229;52.354;20.886;2024-01-30T15:16:53;7.20;92.20
18207;DHT22;9229;52.354;20.886;2024-01-30T15:21:56;7.00;92.80
18207;DHT22;9229;52.354;20.886;2024-01-30T15:26:58;6.90;92.80
18207;DHT22;9229;52.354;20.886;2024-01-30T15:32:04;6.80;93.20
18207;DHT22;9229;52.354;20.886;2024-01-30T15:37:15;6.60;93.50
18207;DHT22;9229;52.354;20.886;2024-01-30T15:42:19;6.40;93.80
18207;DHT22;9229;52.354;20.886;2024-01-30T15:47:23;6.30;94.10
18207;DHT22;9229;52.354;20.886;2024-01-30T15:52:30;6.10;94.40
18207;DHT22;9229;52.354;20.886;2024-01-30T15:57:32;6.00;94.70
18207;DHT22;9229;52.354;20.886;2024-01-30T16:02:34;5.90;95.30
18207;DHT22;9229;52.354;20.886;2024-01-30T16:07:38;5.80;95.10
18207;DHT22;9229;52.354;20.886;2024-01-30T16:12:48;5.80;95.30
18207;DHT22;9229;52.354;20.886;2024-01-30T16:17:53;5.60;95.50
18207;DHT22;9229;52.354;20.886;2024-01-30T16:22:57;5.50;95.80
18207;DHT22;9229;52.354;20.886;2024-01-30T16:27:59;5.30;96.10
18207;DHT22;9229;52.354;20.886;2024-01-30T16:33:01;5.20;96.40
18207;DHT22;9229;52.354;20.886;2024-01-30T16:38:04;5.10;96.70
18207;DHT22;9229;52.354;20.886;2024-01-30T16:43:06;5.00;97.10
18207;DHT22;9229;52.354;20.886;2024-01-30T16:48:09;4.90;97.50
18207;DHT22;9229;52.354;20.886;2024-01-30T16:53:35;4.80;97.70
18207;DHT22;9229;52.354;20.886;2024-01-30T16:58:39;4.70;98.00
18207;DHT22;9229;52.354;20.886;2024-01-30T17:03:42;4.60;98.40
18207;DHT22;9229;52.354;20.886;2024-01-30T17:08:48;4.50;98.80
18207;DHT22;9229;52.354;20.886;2024-01-30T17:13:50;4.50;99.10
18207;DHT22;9229;52.354;20.886;2024-01-30T17:18:54;4.50;99.40
18207;DHT22;9229;52.354;20.886;2024-01-30T17:24:00;4.40;99.80
18207;DHT22;9229;52.354;20.886;2024-01-30T17:29:06;4.50;99.90
18207;DHT22;9229;52.354;20.886;2024-01-30T17:34:09;4.50;99.90
18207;DHT22;9229;52.354;20.886;2024-01-30T17:39:14;4.40;99.90
18207;DHT22;9229;52.354;20.886;2024-01-30T17:44:17;4.30;99.90
18207;DHT22;9229;52.354;20.886;2024-01-30T17:49:22;4.20;99.90
18207;DHT22;9229;52.354;20.886;2024-01-30T17:54:35;4.10;99.90
18207;DHT22;9229;52.354;20.886;2024-01-30T17:59:43;3.90;99.90
18207;DHT22;9229;52.354;20.886;2024-01-30T18:04:48;3.80;99.90
18207;DHT22;9229;52.354;20.886;2024-01-30T18:09:54;3.70;99.90
18207;DHT22;9229;52.354;20.886;2024-01-30T18:15:01;3.50;99.90
18207;DHT22;9229;52.354;20.886;2024-01-30T18:20:07;3.40;99.90
18207;DHT22;9229;52.354;20.886;2024-01-30T18:25:24;3.20;99.90
18207;DHT22;9229;52.354;20.886;2024-01-30T18:30:33;3.20;99.90
18207;DHT22;9229;52.354;20.886;2024-01-30T18:35:36;3.10;99.90
18207;DHT22;9229;52.354;20.886;2024-01-30T18:40:41;3.00;99.90
18207;DHT22;9229;52.354;20.886;2024-01-30T18:45:52;3.00;99.90
18207;DHT22;9229;52.354;20.886;2024-01-30T18:50:58;2.90;99.90
18207;DHT22;9229;52.354;20.886;2024-01-30T18:56:05;2.80;99.90
18207;DHT22;9229;52.354;20.886;2024-01-30T19:01:09;2.70;99.90
18207;DHT22;9229;52.354;20.886;2024-01-30T19:06:12;2.50;99.90
18207;DHT22;9229;52.354;20.886;2024-01-30T19:11:19;2.40;99.90
18207;DHT22;9229;52.354;20.886;2024-01-30T19:16:24;2.20;99.90
18207;DHT22;9229;52.354;20.886;2024-01-30T19:21:27;2.10;99.90
18207;DHT22;9229;52.354;20.886;2024-01-30T19:26:38;2.00;99.90
18207;DHT22;9229;52.354;20.886;2024-01-30T19:31:44;1.90;99.90
18207;DHT22;9229;52.354;20.886;2024-01-30T19:36:46;1.90;99.90
18207;DHT22;9229;52.354;20.886;2024-01-30T19:42:02;1.90;99.90
18207;DHT22;9229;52.354;20.886;2024-01-30T19:47:06;1.90;99.90
18207;DHT22;9229;52.354;20.886;2024-01-30T19:52:13;2.00;99.90
18207;DHT22;9229;52.354;20.886;2024-01-30T19:57:18;2.00;99.90
18207;DHT22;9229;52.354;20.886;2024-01-30T20:02:20;2.10;99.90
18207;DHT22;9229;52.354;20.886;2024-01-30T20:07:23;2.10;99.90
18207;DHT22;9229;52.354;20.886;2024-01-30T20:12:30;2.10;99.90
18207;DHT22;9229;52.354;20.886;2024-01-30T20:17:34;2.10;99.90
18207;DHT22;9229;52.354;20.886;2024-01-30T20:22:39;2.20;99.90
18207;DHT22;9229;52.354;20.886;2024-01-30T20:27:43;2.20;99.90
18207;DHT22;9229;52.354;20.886;2024-01-30T20:32:49;2.20;99.90
18207;DHT22;9229;52.354;20.886;2024-01-30T20:37:53;2.30;99.90
18207;DHT22;9229;52.354;20.886;2024-01-30T20:42:57;2.30;99.90
18207;DHT22;9229;52.354;20.886;2024-01-30T20:48:00;2.30;99.90
18207;DHT22;9229;52.354;20.886;2024-01-30T20:53:04;2.40;99.90
18207;DHT22;9229;52.354;20.886;2024-01-30T20:58:12;2.40;99.90
18207;DHT22;9229;52.354;20.886;2024-01-30T21:03:16;2.50;99.90
18207;DHT22;9229;52.354;20.886;2024-01-30T21:08:19;2.40;99.90
18207;DHT22;9229;52.354;20.886;2024-01-30T21:13:25;2.40;99.90
18207;DHT22;9229;52.354;20.886;2024-01-30T21:18:28;2.40;99.90
18207;DHT22;9229;52.354;20.886;2024-01-30T21:23:31;2.40;99.90
18207;DHT22;9229;52.354;20.886;2024-01-30T21:28:36;2.40;99.90
18207;DHT22;9229;52.354;20.886;2024-01-30T21:33:41;2.40;99.90
18207;DHT22;9229;52.354;20.886;2024-01-30T21:38:57;2.40;99.90
18207;DHT22;9229;52.354;20.886;2024-01-30T21:44:41;2.30;99.90
18207;DHT22;9229;52.354;20.886;2024-01-30T21:50:13;2.20;99.90
18207;DHT22;9229;52.354;20.886;2024-01-30T21:55:58;2.10;99.90
18207;DHT22;9229;52.354;20.886;2024-01-30T22:01:28;2.00;99.90
18207;DHT22;9229;52.354;20.886;2024-01-30T22:06:31;2.00;99.90
18207;DHT22;9229;52.354;20.886;2024-01-30T22:11:41;1.90;99.90
18207;DHT22;9229;52.354;20.886;2024-01-30T22:17:26;1.90;99.90
18207;DHT22;9229;52.354;20.886;2024-01-30T22:22:31;1.90;99.90
18207;DHT22;9229;52.354;20.886;2024-01-30T22:27:51;1.90;99.90
18207;DHT22;9229;52.354;20.886;2024-01-30T22:33:17;1.90;99.90
18207;DHT22;9229;52.354;20.886;2024-01-30T22:38:19;2.10;99.90
18207;DHT22;9229;52.354;20.886;2024-01-30T22:43:21;2.10;99.90
18207;DHT22;9229;52.354;20.886;2024-01-30T22:48:28;2.20;99.90
18207;DHT22;9229;52.354;20.886;2024-01-30T22:53:40;2.30;99.90
18207;DHT22;9229;52.354;20.886;2024-01-30T22:58:42;2.50;99.90
18207;DHT22;9229;52.354;20.886;2024-01-30T23:03:48;2.60;99.90
18207;DHT22;9229;52.354;20.886;2024-01-30T23:08:51;2.60;99.90
18207;DHT22;9229;52.354;20.886;2024-01-30T23:13:54;2.70;99.90
18207;DHT22;9229;52.354;20.886;2024-01-30T23:18:59;2.70;99.90
18207;DHT22;9229;52.354;20.886;2024-01-30T23:24:10;2.80;99.90
18207;DHT22;9229;52.354;20.886;2024-01-30T23:29:21;2.90;99.90
18207;DHT22;9229;52.354;20.886;2024-01-30T23:34:24;2.80;99.90
18207;DHT22;9229;52.354;20.886;2024-01-30T23:39:26;2.80;99.90
18207;DHT22;9229;52.354;20.886;2024-01-30T23:44:28;2.80;99.90
18207;DHT22;9229;52.354;20.886;2024-01-30T23:49:32;2.80;99.90
18207;DHT22;9229;52.354;20.886;2024-01-30T23:54:35;2.90;99.90
18207;DHT22;9229;52.354;20.886;2024-01-30T23:59:39;2.80;99.90
